sensor_id;sensor_type;location;lat;lon;timestamp;pressure;altitude;pressure_sealevel;temperature;humidity
35888;BME280;21990;42.540;23.496;2023-12-20T00:03:22;93907.47;;;1.98;100.00
35888;BME280;21990;42.540;23.496;2023-12-20T00:05:49;93896.38;;;1.89;100.00
35888;BME280;21990;42.540;23.496;2023-12-20T00:08:15;93901.78;;;1.83;100.00
35888;BME280;21990;42.540;23.496;2023-12-20T00:10:41;93896.75;;;1.64;100.00
35888;BME280;21990;42.540;23.496;2023-12-20T00:13:07;93908.19;;;1.57;100.00
35888;BME280;21990;42.540;23.496;2023-12-20T00:15:33;93900.03;;;1.53;100.00
35888;BME280;21990;42.540;23.496;2023-12-20T00:17:59;93904.81;;;1.53;100.00
35888;BME280;21990;42.540;23.496;2023-12-20T00:20:26;93890.03;;;1.47;100.00
35888;BME280;21990;42.540;23.496;2023-12-20T00:22:52;93891.91;;;1.31;100.00
35888;BME280;21990;42.540;23.496;2023-12-20T00:25:17;93894.69;;;1.22;100.00
35888;BME280;21990;42.540;23.496;2023-12-20T00:27:43;93891.16;;;0.94;100.00
35888;BME280;21990;42.540;23.496;2023-12-20T00:30:09;93895.47;;;0.86;100.00
35888;BME280;21990;42.540;23.496;2023-12-20T00:32:35;93892.88;;;0.74;100.00
35888;BME280;21990;42.540;23.496;2023-12-20T00:35:01;93890.88;;;0.83;100.00
35888;BME280;21990;42.540;23.496;2023-12-20T00:37:26;93882.22;;;0.90;100.00
35888;BME280;21990;42.540;23.496;2023-12-20T00:39:52;93877.28;;;0.94;100.00
35888;BME280;21990;42.540;23.496;2023-12-20T00:42:18;93866.66;;;1.02;100.00
35888;BME280;21990;42.540;23.496;2023-12-20T00:44:44;93869.59;;;1.08;100.00
35888;BME280;21990;42.540;23.496;2023-12-20T00:47:09;93867.44;;;1.12;100.00
35888;BME280;21990;42.540;23.496;2023-12-20T00:49:35;93874.19;;;1.20;100.00
35888;BME280;21990;42.540;23.496;2023-12-20T00:52:01;93865.38;;;1.21;100.00
35888;BME280;21990;42.540;23.496;2023-12-20T00:54:26;93860.94;;;1.24;100.00
35888;BME280;21990;42.540;23.496;2023-12-20T00:56:52;93862.31;;;1.19;100.00
35888;BME280;21990;42.540;23.496;2023-12-20T00:59:17;93858.16;;;1.15;100.00
35888;BME280;21990;42.540;23.496;2023-12-20T01:01:43;93859.06;;;1.21;100.00
35888;BME280;21990;42.540;23.496;2023-12-20T01:04:08;93850.28;;;1.22;100.00
35888;BME280;21990;42.540;23.496;2023-12-20T01:06:34;93848.72;;;1.21;100.00
35888;BME280;21990;42.540;23.496;2023-12-20T01:08:59;93843.00;;;1.25;100.00
35888;BME280;21990;42.540;23.496;2023-12-20T01:11:25;93841.34;;;1.27;100.00
35888;BME280;21990;42.540;23.496;2023-12-20T01:13:50;93835.31;;;1.29;100.00
35888;BME280;21990;42.540;23.496;2023-12-20T01:16:16;93840.41;;;1.21;100.00
35888;BME280;21990;42.540;23.496;2023-12-20T01:18:41;93834.72;;;1.16;100.00
35888;BME280;21990;42.540;23.496;2023-12-20T01:21:07;93829.81;;;1.11;100.00
35888;BME280;21990;42.540;23.496;2023-12-20T01:23:32;93828.75;;;1.08;100.00
35888;BME280;21990;42.540;23.496;2023-12-20T01:25:58;93825.19;;;1.08;100.00
35888;BME280;21990;42.540;23.496;2023-12-20T01:28:25;93822.09;;;1.06;100.00
35888;BME280;21990;42.540;23.496;2023-12-20T01:30:51;93810.22;;;1.05;100.00
35888;BME280;21990;42.540;23.496;2023-12-20T01:33:16;93808.53;;;0.99;100.00
35888;BME280;21990;42.540;23.496;2023-12-20T01:35:42;93801.31;;;0.92;99.44
35888;BME280;21990;42.540;23.496;2023-12-20T01:38:07;93799.78;;;0.91;99.66
35888;BME280;21990;42.540;23.496;2023-12-20T01:40:33;93797.31;;;0.93;100.00
35888;BME280;21990;42.540;23.496;2023-12-20T01:43:16;93792.06;;;0.95;100.00
35888;BME280;21990;42.540;23.496;2023-12-20T01:45:42;93786.50;;;0.95;99.90
35888;BME280;21990;42.540;23.496;2023-12-20T01:48:08;93787.75;;;0.94;99.72
35888;BME280;21990;42.540;23.496;2023-12-20T01:50:36;93780.22;;;0.85;99.45
35888;BME280;21990;42.540;23.496;2023-12-20T01:53:03;93780.69;;;0.84;99.57
35888;BME280;21990;42.540;23.496;2023-12-20T01:55:35;93768.81;;;0.83;99.58
35888;BME280;21990;42.540;23.496;2023-12-20T01:58:02;93770.69;;;0.77;98.77
35888;BME280;21990;42.540;23.496;2023-12-20T02:00:29;93765.31;;;0.74;99.13
35888;BME280;21990;42.540;23.496;2023-12-20T02:02:55;93766.22;;;0.71;99.49
35888;BME280;21990;42.540;23.496;2023-12-20T02:05:23;93758.22;;;0.73;99.42
35888;BME280;21990;42.540;23.496;2023-12-20T02:07:49;93751.91;;;0.72;99.29
35888;BME280;21990;42.540;23.496;2023-12-20T02:10:15;93754.22;;;0.74;99.21
35888;BME280;21990;42.540;23.496;2023-12-20T02:12:41;93764.06;;;0.75;99.32
35888;BME280;21990;42.540;23.496;2023-12-20T02:15:07;93752.34;;;0.71;99.04
35888;BME280;21990;42.540;23.496;2023-12-20T02:17:32;93746.84;;;0.62;98.95
35888;BME280;21990;42.540;23.496;2023-12-20T02:19:59;93746.06;;;0.61;99.25
35888;BME280;21990;42.540;23.496;2023-12-20T02:22:24;93746.06;;;0.61;99.26
35888;BME280;21990;42.540;23.496;2023-12-20T02:24:50;93742.06;;;0.62;99.24
35888;BME280;21990;42.540;23.496;2023-12-20T02:27:17;93746.97;;;0.67;99.56
35888;BME280;21990;42.540;23.496;2023-12-20T02:29:43;93730.03;;;0.56;99.36
35888;BME280;21990;42.540;23.496;2023-12-20T02:32:09;93737.28;;;0.54;99.27
35888;BME280;21990;42.540;23.496;2023-12-20T02:34:34;93740.22;;;0.50;99.55
35888;BME280;21990;42.540;23.496;2023-12-20T02:37:00;93728.66;;;0.52;99.49
35888;BME280;21990;42.540;23.496;2023-12-20T02:39:25;93724.22;;;0.54;99.68
35888;BME280;21990;42.540;23.496;2023-12-20T02:41:51;93724.06;;;0.48;99.32
35888;BME280;21990;42.540;23.496;2023-12-20T02:44:16;93725.28;;;0.47;99.62
35888;BME280;21990;42.540;23.496;2023-12-20T02:46:42;93725.44;;;0.44;99.08
35888;BME280;21990;42.540;23.496;2023-12-20T02:49:07;93724.22;;;0.45;99.61
35888;BME280;21990;42.540;23.496;2023-12-20T02:51:33;93710.19;;;0.48;99.89
35888;BME280;21990;42.540;23.496;2023-12-20T02:53:58;93716.97;;;0.47;100.00
35888;BME280;21990;42.540;23.496;2023-12-20T02:56:24;93713.59;;;0.34;100.00
35888;BME280;21990;42.540;23.496;2023-12-20T02:58:49;93719.75;;;0.38;100.00
35888;BME280;21990;42.540;23.496;2023-12-20T03:01:15;93715.91;;;0.45;100.00
35888;BME280;21990;42.540;23.496;2023-12-20T03:03:40;93711.28;;;0.42;100.00
35888;BME280;21990;42.540;23.496;2023-12-20T03:06:06;93716.50;;;0.40;100.00
35888;BME280;21990;42.540;23.496;2023-12-20T03:08:31;93703.75;;;0.42;100.00
35888;BME280;21990;42.540;23.496;2023-12-20T03:10:59;93705.75;;;0.33;100.00
35888;BME280;21990;42.540;23.496;2023-12-20T03:13:24;93707.75;;;0.32;100.00
35888;BME280;21990;42.540;23.496;2023-12-20T03:15:50;93702.84;;;0.18;100.00
35888;BME280;21990;42.540;23.496;2023-12-20T03:18:15;93701.13;;;0.21;100.00
35888;BME280;21990;42.540;23.496;2023-12-20T03:20:41;93705.13;;;0.20;100.00
35888;BME280;21990;42.540;23.496;2023-12-20T03:23:07;93699.59;;;0.20;100.00
35888;BME280;21990;42.540;23.496;2023-12-20T03:25:32;93705.63;;;0.18;100.00
35888;BME280;21990;42.540;23.496;2023-12-20T03:27:58;93698.38;;;0.12;100.00
35888;BME280;21990;42.540;23.496;2023-12-20T03:30:23;93700.69;;;0.13;100.00
35888;BME280;21990;42.540;23.496;2023-12-20T03:32:49;93701.16;;;0.12;100.00
35888;BME280;21990;42.540;23.496;2023-12-20T03:35:14;93696.22;;;0.07;100.00
35888;BME280;21990;42.540;23.496;2023-12-20T03:37:40;93689.31;;;0.02;100.00
35888;BME280;21990;42.540;23.496;2023-12-20T03:40:06;93684.53;;;0.12;100.00
35888;BME280;21990;42.540;23.496;2023-12-20T03:42:32;93690.06;;;0.12;100.00
35888;BME280;21990;42.540;23.496;2023-12-20T03:44:57;93692.38;;;0.13;100.00
35888;BME280;21990;42.540;23.496;2023-12-20T03:47:23;93687.28;;;0.21;100.00
35888;BME280;21990;42.540;23.496;2023-12-20T03:49:48;93686.34;;;0.24;100.00
35888;BME280;21990;42.540;23.496;2023-12-20T03:52:14;93693.75;;;0.27;100.00
35888;BME280;21990;42.540;23.496;2023-12-20T03:54:40;93688.19;;;0.36;100.00
35888;BME280;21990;42.540;23.496;2023-12-20T03:57:07;93685.13;;;0.34;100.00
35888;BME280;21990;42.540;23.496;2023-12-20T03:59:37;93681.88;;;0.35;100.00
35888;BME280;21990;42.540;23.496;2023-12-20T04:02:03;93677.25;;;0.32;100.00
35888;BME280;21990;42.540;23.496;2023-12-20T04:04:29;93686.34;;;0.33;100.00
35888;BME280;21990;42.540;23.496;2023-12-20T04:06:55;93678.63;;;0.37;100.00
35888;BME280;21990;42.540;23.496;2023-12-20T04:09:20;93677.41;;;0.38;100.00
35888;BME280;21990;42.540;23.496;2023-12-20T04:11:46;93677.88;;;0.36;100.00
35888;BME280;21990;42.540;23.496;2023-12-20T04:14:12;93676.31;;;0.35;100.00
35888;BME280;21990;42.540;23.496;2023-12-20T04:16:37;93674.81;;;0.34;100.00
35888;BME280;21990;42.540;23.496;2023-12-20T04:19:04;93666.94;;;0.33;100.00
35888;BME280;21990;42.540;23.496;2023-12-20T04:21:30;93666.94;;;0.24;100.00
35888;BME280;21990;42.540;23.496;2023-12-20T04:23:55;93663.72;;;0.16;100.00
35888;BME280;21990;42.540;23.496;2023-12-20T04:26:21;93655.41;;;0.16;100.00
35888;BME280;21990;42.540;23.496;2023-12-20T04:28:46;93663.88;;;0.22;100.00
35888;BME280;21990;42.540;23.496;2023-12-20T04:31:12;93662.66;;;0.23;100.00
35888;BME280;21990;42.540;23.496;2023-12-20T04:33:37;93652.97;;;0.09;100.00
35888;BME280;21990;42.540;23.496;2023-12-20T04:36:03;93656.66;;;0.15;100.00
35888;BME280;21990;42.540;23.496;2023-12-20T04:38:29;93656.50;;;0.10;100.00
35888;BME280;21990;42.540;23.496;2023-12-20T04:40:55;93656.84;;;0.12;100.00
35888;BME280;21990;42.540;23.496;2023-12-20T04:43:20;93647.13;;;0.07;100.00
35888;BME280;21990;42.540;23.496;2023-12-20T04:45:46;93654.19;;;0.08;100.00
35888;BME280;21990;42.540;23.496;2023-12-20T04:48:12;93654.34;;;0.05;100.00
35888;BME280;21990;42.540;23.496;2023-12-20T04:50:37;93639.44;;;0.02;100.00
35888;BME280;21990;42.540;23.496;2023-12-20T04:53:03;93644.22;;;0.11;100.00
35888;BME280;21990;42.540;23.496;2023-12-20T04:55:28;93640.94;;;0.12;100.00
35888;BME280;21990;42.540;23.496;2023-12-20T04:57:54;93641.44;;;0.11;100.00
35888;BME280;21990;42.540;23.496;2023-12-20T05:00:20;93636.97;;;0.13;100.00
35888;BME280;21990;42.540;23.496;2023-12-20T05:02:45;93633.41;;;0.13;100.00
35888;BME280;21990;42.540;23.496;2023-12-20T05:05:11;93633.28;;;0.07;100.00
35888;BME280;21990;42.540;23.496;2023-12-20T05:07:36;93631.75;;;-0.03;100.00
35888;BME280;21990;42.540;23.496;2023-12-20T05:10:03;93624.53;;;-0.01;100.00
35888;BME280;21990;42.540;23.496;2023-12-20T05:12:33;93616.50;;;0.02;100.00
35888;BME280;21990;42.540;23.496;2023-12-20T05:15:01;93618.19;;;0.08;100.00
35888;BME280;21990;42.540;23.496;2023-12-20T05:17:30;93612.97;;;0.10;100.00
35888;BME280;21990;42.540;23.496;2023-12-20T05:19:56;93622.38;;;0.04;100.00
35888;BME280;21990;42.540;23.496;2023-12-20T05:22:21;93613.41;;;0.09;100.00
35888;BME280;21990;42.540;23.496;2023-12-20T05:24:47;93618.19;;;0.08;100.00
35888;BME280;21990;42.540;23.496;2023-12-20T05:27:12;93620.34;;;0.04;100.00
35888;BME280;21990;42.540;23.496;2023-12-20T05:29:38;93619.28;;;0.02;100.00
35888;BME280;21990;42.540;23.496;2023-12-20T05:32:04;93608.97;;;0.02;100.00
35888;BME280;21990;42.540;23.496;2023-12-20T05:34:30;93605.44;;;-0.08;100.00
35888;BME280;21990;42.540;23.496;2023-12-20T05:36:56;93609.91;;;-0.10;100.00
35888;BME280;21990;42.540;23.496;2023-12-20T05:39:21;93606.69;;;-0.09;100.00
35888;BME280;21990;42.540;23.496;2023-12-20T05:41:47;93603.47;;;-0.16;100.00
35888;BME280;21990;42.540;23.496;2023-12-20T05:44:13;93602.53;;;-0.22;100.00
35888;BME280;21990;42.540;23.496;2023-12-20T05:46:38;93595.31;;;-0.38;100.00
35888;BME280;21990;42.540;23.496;2023-12-20T05:49:05;93595.94;;;-0.25;100.00
35888;BME280;21990;42.540;23.496;2023-12-20T05:51:31;93598.53;;;-0.12;100.00
35888;BME280;21990;42.540;23.496;2023-12-20T05:53:57;93590.22;;;-0.12;100.00
35888;BME280;21990;42.540;23.496;2023-12-20T05:56:22;93594.84;;;-0.09;100.00
35888;BME280;21990;42.540;23.496;2023-12-20T05:58:48;93584.81;;;-0.07;100.00
35888;BME280;21990;42.540;23.496;2023-12-20T06:01:16;93585.13;;;-0.05;100.00
35888;BME280;21990;42.540;23.496;2023-12-20T06:03:44;93583.59;;;-0.06;100.00
35888;BME280;21990;42.540;23.496;2023-12-20T06:06:11;93577.72;;;0.02;100.00
35888;BME280;21990;42.540;23.496;2023-12-20T06:08:38;93581.44;;;0.08;100.00
35888;BME280;21990;42.540;23.496;2023-12-20T06:11:04;93573.84;;;0.08;100.00
35888;BME280;21990;42.540;23.496;2023-12-20T06:13:30;93578.00;;;0.13;100.00
35888;BME280;21990;42.540;23.496;2023-12-20T06:15:56;93571.84;;;0.09;100.00
35888;BME280;21990;42.540;23.496;2023-12-20T06:18:22;93570.19;;;0.11;100.00
35888;BME280;21990;42.540;23.496;2023-12-20T06:20:47;93575.06;;;0.16;100.00
35888;BME280;21990;42.540;23.496;2023-12-20T06:23:13;93577.38;;;0.18;100.00
35888;BME280;21990;42.540;23.496;2023-12-20T06:25:38;93572.44;;;0.22;100.00
35888;BME280;21990;42.540;23.496;2023-12-20T06:28:04;93579.53;;;0.23;99.76
35888;BME280;21990;42.540;23.496;2023-12-20T06:30:30;93577.28;;;-0.06;98.83
35888;BME280;21990;42.540;23.496;2023-12-20T06:32:57;93577.91;;;-0.02;98.73
35888;BME280;21990;42.540;23.496;2023-12-20T06:35:23;93583.28;;;-0.08;98.67
35888;BME280;21990;42.540;23.496;2023-12-20T06:37:49;93577.72;;;-0.08;99.59
35888;BME280;21990;42.540;23.496;2023-12-20T06:40:14;93573.44;;;-0.09;99.63
35888;BME280;21990;42.540;23.496;2023-12-20T06:42:41;93577.59;;;-0.13;99.55
35888;BME280;21990;42.540;23.496;2023-12-20T06:45:07;93575.00;;;-0.17;100.00
35888;BME280;21990;42.540;23.496;2023-12-20T06:47:32;93575.16;;;-0.20;99.90
35888;BME280;21990;42.540;23.496;2023-12-20T06:49:58;93567.47;;;-0.16;99.89
35888;BME280;21990;42.540;23.496;2023-12-20T06:52:23;93566.03;;;-0.12;99.88
35888;BME280;21990;42.540;23.496;2023-12-20T06:54:49;93568.69;;;-0.08;99.37
35888;BME280;21990;42.540;23.496;2023-12-20T06:57:14;93565.59;;;-0.10;99.54
35888;BME280;21990;42.540;23.496;2023-12-20T06:59:43;93554.97;;;-0.12;99.76
35888;BME280;21990;42.540;23.496;2023-12-20T07:02:09;93554.97;;;-0.12;99.93
35888;BME280;21990;42.540;23.496;2023-12-20T07:04:39;93548.03;;;-0.07;99.73
35888;BME280;21990;42.540;23.496;2023-12-20T07:07:05;93540.34;;;-0.03;99.59
35888;BME280;21990;42.540;23.496;2023-12-20T07:09:31;93556.63;;;0.04;99.61
35888;BME280;21990;42.540;23.496;2023-12-20T07:11:56;93551.09;;;0.04;99.84
35888;BME280;21990;42.540;23.496;2023-12-20T07:14:22;93551.84;;;0.14;99.94
35888;BME280;21990;42.540;23.496;2023-12-20T07:16:47;93552.31;;;0.12;99.83
35888;BME280;21990;42.540;23.496;2023-12-20T07:19:13;93552.00;;;0.19;99.54
35888;BME280;21990;42.540;23.496;2023-12-20T07:21:38;93533.50;;;0.16;99.37
35888;BME280;21990;42.540;23.496;2023-12-20T07:24:04;93535.38;;;0.10;100.00
35888;BME280;21990;42.540;23.496;2023-12-20T07:26:30;93537.38;;;0.10;100.00
35888;BME280;21990;42.540;23.496;2023-12-20T07:28:55;93538.00;;;0.05;100.00
35888;BME280;21990;42.540;23.496;2023-12-20T07:31:21;93533.56;;;0.07;100.00
35888;BME280;21990;42.540;23.496;2023-12-20T07:33:47;93544.31;;;0.05;100.00
35888;BME280;21990;42.540;23.496;2023-12-20T07:36:12;93543.69;;;0.10;100.00
35888;BME280;21990;42.540;23.496;2023-12-20T07:38:38;93530.00;;;0.07;100.00
35888;BME280;21990;42.540;23.496;2023-12-20T07:41:04;93527.19;;;0.16;100.00
35888;BME280;21990;42.540;23.496;2023-12-20T07:43:30;93524.75;;;0.18;100.00
35888;BME280;21990;42.540;23.496;2023-12-20T07:45:55;93521.81;;;0.21;100.00
35888;BME280;21990;42.540;23.496;2023-12-20T07:48:21;93525.16;;;0.34;100.00
35888;BME280;21990;42.540;23.496;2023-12-20T07:50:46;93523.56;;;0.42;100.00
35888;BME280;21990;42.540;23.496;2023-12-20T07:53:12;93521.50;;;0.52;100.00
35888;BME280;21990;42.540;23.496;2023-12-20T07:55:37;93521.22;;;0.50;100.00
35888;BME280;21990;42.540;23.496;2023-12-20T07:58:04;93525.50;;;0.51;100.00
35888;BME280;21990;42.540;23.496;2023-12-20T08:00:30;93506.25;;;0.57;100.00
35888;BME280;21990;42.540;23.496;2023-12-20T08:02:56;93507.63;;;0.61;100.00
35888;BME280;21990;42.540;23.496;2023-12-20T08:05:21;93512.75;;;0.77;100.00
35888;BME280;21990;42.540;23.496;2023-12-20T08:07:47;93500.81;;;0.86;100.00
35888;BME280;21990;42.540;23.496;2023-12-20T08:10:12;93504.00;;;0.93;100.00
35888;BME280;21990;42.540;23.496;2023-12-20T08:12:38;93501.38;;;0.99;100.00
35888;BME280;21990;42.540;23.496;2023-12-20T08:15:05;93504.84;;;1.09;100.00
35888;BME280;21990;42.540;23.496;2023-12-20T08:17:31;93501.59;;;1.10;100.00
35888;BME280;21990;42.540;23.496;2023-12-20T08:19:56;93500.53;;;1.08;100.00
35888;BME280;21990;42.540;23.496;2023-12-20T08:22:22;93492.41;;;1.04;100.00
35888;BME280;21990;42.540;23.496;2023-12-20T08:24:47;93489.44;;;1.08;100.00
35888;BME280;21990;42.540;23.496;2023-12-20T08:27:13;93480.94;;;1.11;100.00
35888;BME280;21990;42.540;23.496;2023-12-20T08:29:38;93480.88;;;1.20;100.00
35888;BME280;21990;42.540;23.496;2023-12-20T08:32:04;93474.56;;;1.34;100.00
35888;BME280;21990;42.540;23.496;2023-12-20T08:34:30;93471.16;;;1.39;100.00
35888;BME280;21990;42.540;23.496;2023-12-20T08:36:55;93466.84;;;1.53;100.00
35888;BME280;21990;42.540;23.496;2023-12-20T08:39:21;93460.25;;;1.51;100.00
35888;BME280;21990;42.540;23.496;2023-12-20T08:41:46;93449.34;;;1.62;100.00
35888;BME280;21990;42.540;23.496;2023-12-20T08:44:12;93452.09;;;1.62;100.00
35888;BME280;21990;42.540;23.496;2023-12-20T08:46:38;93454.50;;;1.69;100.00
35888;BME280;21990;42.540;23.496;2023-12-20T08:49:03;93449.34;;;1.62;100.00
35888;BME280;21990;42.540;23.496;2023-12-20T08:51:29;93452.88;;;1.62;99.48
35888;BME280;21990;42.540;23.496;2023-12-20T08:53:54;93440.53;;;1.63;98.81
35888;BME280;21990;42.540;23.496;2023-12-20T08:56:20;93430.38;;;1.75;98.94
35888;BME280;21990;42.540;23.496;2023-12-20T08:58:46;93434.47;;;1.79;98.56
35888;BME280;21990;42.540;23.496;2023-12-20T09:01:12;93430.63;;;1.91;98.10
35888;BME280;21990;42.540;23.496;2023-12-20T09:03:39;93417.91;;;1.85;99.06
35888;BME280;21990;42.540;23.496;2023-12-20T09:06:04;93409.94;;;1.92;98.63
35888;BME280;21990;42.540;23.496;2023-12-20T09:08:30;93409.28;;;1.98;99.06
35888;BME280;21990;42.540;23.496;2023-12-20T09:10:56;93401.22;;;2.00;99.48
35888;BME280;21990;42.540;23.496;2023-12-20T09:13:22;93391.53;;;2.10;98.85
35888;BME280;21990;42.540;23.496;2023-12-20T09:15:52;93395.63;;;2.14;98.61
35888;BME280;21990;42.540;23.496;2023-12-20T09:18:17;93383.34;;;2.21;98.32
35888;BME280;21990;42.540;23.496;2023-12-20T09:20:43;93382.94;;;2.28;98.26
35888;BME280;21990;42.540;23.496;2023-12-20T09:23:08;93381.41;;;2.27;97.76
35888;BME280;21990;42.540;23.496;2023-12-20T09:25:34;93370.66;;;2.34;97.55
35888;BME280;21990;42.540;23.496;2023-12-20T09:27:59;93363.00;;;2.29;96.88
35888;BME280;21990;42.540;23.496;2023-12-20T09:30:25;93356.75;;;2.34;96.63
35888;BME280;21990;42.540;23.496;2023-12-20T09:32:50;93362.72;;;2.27;97.32
35888;BME280;21990;42.540;23.496;2023-12-20T09:35:16;93351.75;;;2.38;97.21
35888;BME280;21990;42.540;23.496;2023-12-20T09:37:42;93343.63;;;2.35;96.63
35888;BME280;21990;42.540;23.496;2023-12-20T09:40:12;93351.38;;;2.31;97.95
35888;BME280;21990;42.540;23.496;2023-12-20T09:42:47;93341.81;;;2.32;99.11
35888;BME280;21990;42.540;23.496;2023-12-20T09:45:15;93337.63;;;2.42;99.29
35888;BME280;21990;42.540;23.496;2023-12-20T09:47:43;93329.38;;;2.48;99.81
35888;BME280;21990;42.540;23.496;2023-12-20T09:50:09;93330.06;;;2.63;100.00
35888;BME280;21990;42.540;23.496;2023-12-20T09:52:36;93314.34;;;2.80;100.00
35888;BME280;21990;42.540;23.496;2023-12-20T09:55:04;93316.25;;;2.94;100.00
35888;BME280;21990;42.540;23.496;2023-12-20T09:57:31;93311.13;;;3.13;100.00
35888;BME280;21990;42.540;23.496;2023-12-20T09:59:57;93304.25;;;3.34;100.00
35888;BME280;21990;42.540;23.496;2023-12-20T10:02:25;93289.16;;;3.46;100.00
35888;BME280;21990;42.540;23.496;2023-12-20T10:04:55;93283.94;;;3.59;100.00
35888;BME280;21990;42.540;23.496;2023-12-20T10:07:21;93269.25;;;3.59;99.40
35888;BME280;21990;42.540;23.496;2023-12-20T10:09:47;93259.69;;;3.65;99.73
35888;BME280;21990;42.540;23.496;2023-12-20T10:12:14;93260.31;;;3.86;98.83
35888;BME280;21990;42.540;23.496;2023-12-20T10:14:39;93245.19;;;3.93;98.48
35888;BME280;21990;42.540;23.496;2023-12-20T10:17:05;93249.53;;;4.05;97.69
35888;BME280;21990;42.540;23.496;2023-12-20T10:19:32;93233.56;;;4.05;97.59
35888;BME280;21990;42.540;23.496;2023-12-20T10:22:01;93240.50;;;4.21;96.91
35888;BME280;21990;42.540;23.496;2023-12-20T10:24:29;93232.66;;;4.25;96.67
35888;BME280;21990;42.540;23.496;2023-12-20T10:27:02;93230.09;;;4.21;96.82
35888;BME280;21990;42.540;23.496;2023-12-20T10:29:35;93222.78;;;4.24;97.09
35888;BME280;21990;42.540;23.496;2023-12-20T10:32:21;93219.75;;;4.33;96.88
35888;BME280;21990;42.540;23.496;2023-12-20T10:34:47;93213.41;;;4.27;96.39
35888;BME280;21990;42.540;23.496;2023-12-20T10:37:12;93210.88;;;4.29;96.91
35888;BME280;21990;42.540;23.496;2023-12-20T10:39:38;93209.38;;;4.34;95.94
35888;BME280;21990;42.540;23.496;2023-12-20T10:42:05;93198.47;;;4.36;95.96
35888;BME280;21990;42.540;23.496;2023-12-20T10:44:31;93206.53;;;4.28;96.48
35888;BME280;21990;42.540;23.496;2023-12-20T10:46:56;93203.50;;;4.26;96.83
35888;BME280;21990;42.540;23.496;2023-12-20T10:49:24;93194.16;;;4.35;96.48
35888;BME280;21990;42.540;23.496;2023-12-20T10:51:54;93183.75;;;4.24;96.86
35888;BME280;21990;42.540;23.496;2023-12-20T10:54:20;93182.00;;;4.38;96.33
35888;BME280;21990;42.540;23.496;2023-12-20T10:56:46;93184.53;;;4.41;95.20
35888;BME280;21990;42.540;23.496;2023-12-20T10:59:13;93182.50;;;4.36;95.34
35888;BME280;21990;42.540;23.496;2023-12-20T11:01:41;93177.44;;;4.35;95.44
35888;BME280;21990;42.540;23.496;2023-12-20T11:04:10;93175.66;;;4.32;95.45
35888;BME280;21990;42.540;23.496;2023-12-20T11:06:58;93157.38;;;4.30;95.27
35888;BME280;21990;42.540;23.496;2023-12-20T11:09:28;93157.34;;;4.25;94.73
35888;BME280;21990;42.540;23.496;2023-12-20T11:12:15;93149.22;;;4.21;94.80
35888;BME280;21990;42.540;23.496;2023-12-20T11:14:53;93143.66;;;4.16;94.95
35888;BME280;21990;42.540;23.496;2023-12-20T11:17:21;93133.75;;;4.15;94.96
35888;BME280;21990;42.540;23.496;2023-12-20T11:22:25;93124.59;;;4.03;95.34
35888;BME280;21990;42.540;23.496;2023-12-20T11:24:52;93124.84;;;4.05;95.35
35888;BME280;21990;42.540;23.496;2023-12-20T11:27:18;93114.69;;;4.02;94.92
35888;BME280;21990;42.540;23.496;2023-12-20T11:29:52;93109.91;;;4.03;95.01
35888;BME280;21990;42.540;23.496;2023-12-20T11:34:53;93097.47;;;3.98;95.00
35888;BME280;21990;42.540;23.496;2023-12-20T11:37:20;93097.22;;;3.96;95.15
35888;BME280;21990;42.540;23.496;2023-12-20T11:39:54;93091.88;;;3.93;95.37
35888;BME280;21990;42.540;23.496;2023-12-20T11:42:20;93090.34;;;3.92;95.68
35888;BME280;21990;42.540;23.496;2023-12-20T11:44:46;93077.66;;;3.91;95.81
35888;BME280;21990;42.540;23.496;2023-12-20T11:47:13;93075.63;;;3.86;95.81
35888;BME280;21990;42.540;23.496;2023-12-20T11:49:39;93067.75;;;3.78;95.61
35888;BME280;21990;42.540;23.496;2023-12-20T11:52:05;93072.03;;;3.74;95.74
35888;BME280;21990;42.540;23.496;2023-12-20T11:54:31;93071.28;;;3.73;95.81
35888;BME280;21990;42.540;23.496;2023-12-20T11:56:57;93060.63;;;3.72;95.62
35888;BME280;21990;42.540;23.496;2023-12-20T11:59:23;93059.78;;;3.55;95.81
35888;BME280;21990;42.540;23.496;2023-12-20T12:01:49;93050.72;;;3.60;96.30
35888;BME280;21990;42.540;23.496;2023-12-20T12:04:20;93041.88;;;3.61;96.30
35888;BME280;21990;42.540;23.496;2023-12-20T12:06:46;93043.13;;;3.60;96.14
35888;BME280;21990;42.540;23.496;2023-12-20T12:09:11;93036.00;;;3.59;96.09
35888;BME280;21990;42.540;23.496;2023-12-20T12:11:37;93038.03;;;3.59;96.38
35888;BME280;21990;42.540;23.496;2023-12-20T12:14:03;93026.38;;;3.55;96.39
35888;BME280;21990;42.540;23.496;2023-12-20T12:16:32;93033.22;;;3.54;96.47
35888;BME280;21990;42.540;23.496;2023-12-20T12:18:58;93026.38;;;3.55;96.34
35888;BME280;21990;42.540;23.496;2023-12-20T12:21:24;93030.16;;;3.52;96.39
35888;BME280;21990;42.540;23.496;2023-12-20T12:23:50;93030.41;;;3.48;96.64
35888;BME280;21990;42.540;23.496;2023-12-20T12:26:16;93020.78;;;3.49;96.91
35888;BME280;21990;42.540;23.496;2023-12-20T12:28:42;93021.56;;;3.50;96.90
35888;BME280;21990;42.540;23.496;2023-12-20T12:31:09;93014.72;;;3.51;97.02
35888;BME280;21990;42.540;23.496;2023-12-20T12:33:40;93013.91;;;3.39;97.76
35888;BME280;21990;42.540;23.496;2023-12-20T12:36:07;93003.28;;;3.43;97.56
35888;BME280;21990;42.540;23.496;2023-12-20T12:38:33;93011.41;;;3.41;97.53
35888;BME280;21990;42.540;23.496;2023-12-20T12:41:00;93006.28;;;3.28;98.15
35888;BME280;21990;42.540;23.496;2023-12-20T12:43:26;93001.00;;;3.36;97.92
35888;BME280;21990;42.540;23.496;2023-12-20T12:45:51;93010.59;;;3.35;97.88
35888;BME280;21990;42.540;23.496;2023-12-20T12:48:17;92999.22;;;3.39;97.87
35888;BME280;21990;42.540;23.496;2023-12-20T12:50:43;92995.94;;;3.40;97.80
35888;BME280;21990;42.540;23.496;2023-12-20T12:53:08;92998.25;;;3.42;97.23
35888;BME280;21990;42.540;23.496;2023-12-20T12:55:34;92994.69;;;3.41;97.02